Terminal Aerodrome Forecast
Issued by NWS Blacksburg, VA

Current Version | Previous Version | Graphics & Text | Print | Product List | Glossary On
Versions: 1 2 3 4 5 6 7 8 9 10 11 12 13 14 15 16 17 18 19 20 21
000
FTUS41 KRNK 211501 AAH
TAFBLF
TAF AMD
KBLF 211501Z 2115/2212 31006KT P6SM OVC020
     FM211800 29007KT P6SM BKN035
     FM221000 33008KT P6SM BKN035=

USA.gov is the U.S. government's official web portal to all federal, state and local government web resources and services.